createdAt,value
2017-03-12T00:00:16.011Z,19.45
2017-03-12T00:01:25.960Z,19.29
2017-03-12T00:02:36.701Z,19.41
2017-03-12T00:03:47.051Z,19.34
2017-03-12T00:04:56.943Z,19.36
2017-03-12T00:06:07.248Z,19.31
2017-03-12T00:07:17.579Z,19.34
2017-03-12T00:08:28.311Z,19.24
2017-03-12T00:09:38.605Z,19.36
2017-03-12T00:10:48.137Z,19.24
2017-03-12T00:11:58.442Z,19.31
2017-03-12T00:13:09.172Z,19.39
2017-03-12T00:14:19.878Z,19.36
2017-03-12T00:15:30.242Z,19.31
2017-03-12T00:16:40.596Z,19.29
2017-03-12T00:17:51.317Z,19.19
2017-03-12T00:19:02.066Z,19.26
2017-03-12T00:20:12.370Z,19.19
2017-03-12T00:21:22.701Z,19.19
2017-03-12T00:22:33.421Z,19.07
2017-03-12T00:23:43.753Z,19.18
2017-03-12T00:24:54.096Z,19.09
2017-03-12T00:26:04.309Z,19.11
2017-03-12T00:27:15.028Z,19.07
2017-03-12T00:28:25.349Z,19.07
2017-03-12T00:29:35.676Z,19.08
2017-03-12T00:30:45.995Z,18.96
2017-03-12T00:31:55.567Z,18.99
2017-03-12T00:33:05.878Z,19.04
2017-03-12T00:34:16.212Z,19.02
2017-03-12T00:35:26.163Z,18.93
2017-03-12T00:36:36.115Z,18.99
2017-03-12T00:37:46.837Z,18.95
2017-03-12T00:38:57.581Z,18.99
2017-03-12T00:40:07.919Z,18.98
2017-03-12T00:41:17.903Z,18.93
2017-03-12T00:42:28.548Z,18.9
2017-03-12T00:43:39.269Z,18.95
2017-03-12T00:44:49.224Z,19
2017-03-12T00:45:59.904Z,18.89
2017-03-12T00:47:10.609Z,18.93
2017-03-12T00:48:20.166Z,19
2017-03-12T00:49:30.122Z,18.89
2017-03-12T00:50:40.081Z,18.96
2017-03-12T00:51:49.639Z,18.95
2017-03-12T00:52:59.985Z,18.89
2017-03-12T00:54:10.328Z,18.89
2017-03-12T00:55:20.245Z,18.89
2017-03-12T00:56:30.375Z,18.93
2017-03-12T00:57:39.541Z,18.89
2017-03-12T00:58:49.490Z,18.86
2017-03-12T00:59:59.142Z,18.81
2017-03-12T01:01:09.876Z,18.83
2017-03-12T01:02:19.822Z,18.83
2017-03-12T01:03:29.768Z,18.74
2017-03-12T01:04:40.123Z,18.84
2017-03-12T01:05:50.474Z,18.74
2017-03-12T01:07:00.038Z,18.74
2017-03-12T01:08:09.976Z,18.77
2017-03-12T01:09:20.702Z,18.71
2017-03-12T01:10:31.028Z,18.73
2017-03-12T01:11:41.743Z,18.63
2017-03-12T01:12:52.093Z,18.77
2017-03-12T01:14:02.046Z,18.75
2017-03-12T01:15:12.007Z,18.71
2017-03-12T01:16:22.352Z,18.73
2017-03-12T01:17:32.320Z,18.7
2017-03-12T01:18:42.299Z,18.73
2017-03-12T01:19:52.662Z,18.7
2017-03-12T01:21:02.561Z,18.74
2017-03-12T01:22:12.886Z,18.71
2017-03-12T01:23:23.241Z,18.71
2017-03-12T01:24:33.205Z,18.7
2017-03-12T01:25:43.590Z,18.65
2017-03-12T01:26:53.885Z,18.66
2017-03-12T01:28:03.664Z,18.7
2017-03-12T01:29:12.845Z,18.65
2017-03-12T01:30:22.791Z,18.58
2017-03-12T01:31:32.741Z,18.56
2017-03-12T01:32:43.102Z,18.59
2017-03-12T01:33:53.419Z,18.66
2017-03-12T01:35:04.018Z,18.71
2017-03-12T01:36:13.966Z,18.59
2017-03-12T01:37:24.310Z,18.68
2017-03-12T01:38:34.216Z,18.65
2017-03-12T01:39:44.565Z,18.53
2017-03-12T01:40:55.279Z,18.56
2017-03-12T01:42:05.616Z,18.59
2017-03-12T01:43:15.922Z,18.56
2017-03-12T01:44:26.214Z,18.53
2017-03-12T01:45:36.556Z,18.5
2017-03-12T01:46:47.328Z,18.55
2017-03-12T01:47:58.094Z,18.56
2017-03-12T01:49:08.818Z,18.44
2017-03-12T01:50:18.778Z,18.43
2017-03-12T01:51:29.072Z,18.44
2017-03-12T01:52:39.353Z,18.44
2017-03-12T01:53:50.052Z,18.4
2017-03-12T01:55:00.000Z,18.47
2017-03-12T01:56:09.985Z,18.47
2017-03-12T01:57:19.553Z,18.45
2017-03-12T01:58:29.873Z,18.41
2017-03-12T01:59:40.598Z,18.44
2017-03-12T02:00:50.567Z,18.5
2017-03-12T02:02:01.312Z,18.52
2017-03-12T02:03:12.046Z,18.47
2017-03-12T02:04:22.353Z,18.44
2017-03-12T02:05:32.281Z,18.43
2017-03-12T02:06:42.991Z,18.44
2017-03-12T02:07:53.690Z,18.56
2017-03-12T02:09:03.616Z,18.43
2017-03-12T02:10:13.947Z,18.41
2017-03-12T02:11:23.902Z,18.45
2017-03-12T02:12:33.872Z,18.44
2017-03-12T02:13:43.432Z,18.45
2017-03-12T02:14:53.759Z,18.44
2017-03-12T02:16:04.111Z,18.34
2017-03-12T02:17:14.066Z,18.43
2017-03-12T02:18:24.364Z,18.34
2017-03-12T02:19:34.320Z,18.29
2017-03-12T02:20:44.725Z,18.37
2017-03-12T02:21:55.072Z,18.31
2017-03-12T02:23:05.419Z,18.31
2017-03-12T02:24:16.142Z,18.31
2017-03-12T02:25:26.474Z,18.34
2017-03-12T02:26:36.807Z,18.4
2017-03-12T02:27:47.527Z,18.37
2017-03-12T02:28:58.267Z,18.25
2017-03-12T02:30:08.600Z,18.26
2017-03-12T02:31:18.954Z,18.28
2017-03-12T02:32:29.324Z,18.31
2017-03-12T02:33:39.220Z,18.33
2017-03-12T02:34:49.159Z,18.31
2017-03-12T02:35:59.884Z,18.28
2017-03-12T02:37:10.220Z,18.29
2017-03-12T02:38:20.560Z,18.31
2017-03-12T02:39:30.831Z,18.31
2017-03-12T02:40:41.514Z,18.34
2017-03-12T02:41:51.465Z,18.31
2017-03-12T02:43:00.642Z,18.28
2017-03-12T02:44:10.194Z,18.31
2017-03-12T02:45:20.520Z,18.34
2017-03-12T02:46:30.901Z,18.31
2017-03-12T02:47:41.631Z,18.33
2017-03-12T02:48:52.348Z,18.34
2017-03-12T02:50:02.693Z,18.31
2017-03-12T02:51:13.028Z,18.37
2017-03-12T02:52:24.012Z,18.29
2017-03-12T02:53:33.963Z,18.28
2017-03-12T02:54:43.911Z,18.31
2017-03-12T02:55:53.860Z,18.31
2017-03-12T02:57:04.875Z,18.31
2017-03-12T02:58:15.143Z,18.26
2017-03-12T02:59:25.472Z,18.28
2017-03-12T03:00:35.788Z,18.26
2017-03-12T03:01:46.099Z,18.26
2017-03-12T03:02:55.924Z,18.38
2017-03-12T03:04:05.074Z,18.29
2017-03-12T03:05:14.655Z,18.31
2017-03-12T03:06:24.221Z,18.31
2017-03-12T03:07:33.399Z,18.31
2017-03-12T03:08:44.146Z,18.29
2017-03-12T03:09:54.882Z,18.29
2017-03-12T03:11:05.233Z,18.34
2017-03-12T03:12:15.578Z,18.26
2017-03-12T03:13:25.492Z,18.29
2017-03-12T03:14:36.186Z,18.33
2017-03-12T03:15:46.918Z,18.31
2017-03-12T03:16:57.215Z,18.25
2017-03-12T03:18:07.918Z,18.29
2017-03-12T03:19:18.266Z,18.22
2017-03-12T03:20:28.987Z,18.18
2017-03-12T03:21:45.606Z,18.22
2017-03-12T03:22:55.559Z,18.22
2017-03-12T03:24:06.105Z,18.28
2017-03-12T03:25:16.402Z,18.26
2017-03-12T03:26:26.724Z,18.23
2017-03-12T03:27:37.450Z,18.2
2017-03-12T03:28:48.235Z,18.19
2017-03-12T03:29:58.576Z,18.2
2017-03-12T03:31:08.518Z,18.26
2017-03-12T03:32:18.859Z,18.19
2017-03-12T03:33:29.235Z,18.22
2017-03-12T03:34:39.916Z,18.11
2017-03-12T03:35:49.459Z,18.1
2017-03-12T03:37:00.198Z,18.19
2017-03-12T03:38:09.814Z,18.11
2017-03-12T03:39:20.163Z,18.16
2017-03-12T03:40:30.850Z,18.1
2017-03-12T03:41:41.533Z,18.16
2017-03-12T03:42:51.866Z,18.11
2017-03-12T03:44:02.592Z,18.05
2017-03-12T03:45:12.959Z,18.1
2017-03-12T03:46:22.918Z,18.03
2017-03-12T03:47:33.250Z,18.07
2017-03-12T03:48:43.576Z,18.08
2017-03-12T03:49:53.886Z,18.05
2017-03-12T03:51:04.593Z,18.03
2017-03-12T03:52:14.946Z,18.01
2017-03-12T03:53:24.887Z,17.95
2017-03-12T03:54:35.228Z,17.98
2017-03-12T03:55:45.949Z,18.03
2017-03-12T03:56:56.672Z,17.97
2017-03-12T03:58:07.050Z,18
2017-03-12T03:59:17.363Z,18.03
2017-03-12T04:00:27.140Z,18.04
2017-03-12T04:01:35.960Z,17.97
2017-03-12T04:02:45.890Z,17.97
2017-03-12T04:03:55.854Z,18.01
2017-03-12T04:05:06.187Z,17.97
2017-03-12T04:06:16.539Z,17.95
2017-03-12T04:07:26.450Z,17.89
2017-03-12T04:08:36.575Z,17.94
2017-03-12T04:09:46.917Z,17.94
2017-03-12T04:10:57.266Z,17.85
2017-03-12T04:12:07.192Z,17.87
2017-03-12T04:13:17.895Z,17.87
2017-03-12T04:14:28.282Z,17.86
2017-03-12T04:15:38.577Z,17.85
2017-03-12T04:16:48.890Z,17.85
2017-03-12T04:17:59.247Z,17.86
2017-03-12T04:19:08.781Z,17.83
2017-03-12T04:20:19.335Z,17.85
2017-03-12T04:21:29.673Z,17.87
2017-03-12T04:22:40.028Z,17.82
2017-03-12T04:23:50.761Z,17.79
2017-03-12T04:25:00.725Z,17.83
2017-03-12T04:26:11.112Z,17.85
2017-03-12T04:27:21.425Z,17.8
2017-03-12T04:28:31.754Z,17.87
2017-03-12T04:29:42.117Z,17.9
2017-03-12T04:30:52.458Z,17.89
2017-03-12T04:32:02.799Z,17.85
2017-03-12T04:33:13.534Z,17.83
2017-03-12T04:34:24.253Z,17.8
2017-03-12T04:35:34.188Z,17.74
2017-03-12T04:36:44.469Z,17.78
2017-03-12T04:37:54.799Z,17.8
2017-03-12T04:39:05.117Z,17.83
2017-03-12T04:40:15.850Z,17.78
2017-03-12T04:41:26.195Z,17.8
2017-03-12T04:42:36.873Z,17.83
2017-03-12T04:43:47.559Z,17.8
2017-03-12T04:44:57.481Z,17.78
2017-03-12T04:46:07.349Z,17.79
2017-03-12T04:47:17.670Z,17.85
2017-03-12T04:48:28.363Z,17.71
2017-03-12T04:49:38.671Z,17.65
2017-03-12T04:50:49.415Z,17.63
2017-03-12T04:52:00.088Z,17.63
2017-03-12T04:53:10.782Z,17.67
2017-03-12T04:54:21.127Z,17.67
2017-03-12T04:55:31.460Z,17.65
2017-03-12T04:56:42.211Z,17.64
2017-03-12T04:57:52.938Z,17.65
2017-03-12T04:59:03.702Z,17.65
2017-03-12T05:00:14.038Z,17.63
2017-03-12T05:01:24.005Z,17.57
2017-03-12T05:02:34.754Z,17.6
2017-03-12T05:03:44.328Z,17.56
2017-03-12T05:04:53.891Z,17.63
2017-03-12T05:06:04.650Z,17.59
2017-03-12T05:07:14.624Z,17.59
2017-03-12T05:08:25.172Z,17.54
2017-03-12T05:09:35.523Z,17.7
2017-03-12T05:10:46.249Z,17.65
2017-03-12T05:11:56.543Z,17.67
2017-03-12T05:13:07.255Z,17.63
2017-03-12T05:14:17.604Z,17.6
2017-03-12T05:15:27.891Z,17.71
2017-03-12T05:16:38.585Z,17.64
2017-03-12T05:17:48.933Z,17.65
2017-03-12T05:18:59.266Z,17.54
2017-03-12T05:20:08.841Z,17.65
2017-03-12T05:21:19.205Z,17.63
2017-03-12T05:22:29.545Z,17.64
2017-03-12T05:23:40.279Z,17.65
2017-03-12T05:24:51.012Z,17.67
2017-03-12T05:26:01.744Z,17.6
2017-03-12T05:27:11.726Z,17.65
2017-03-12T05:28:22.456Z,17.56
2017-03-12T05:29:32.406Z,17.63
2017-03-12T05:30:42.332Z,17.63
2017-03-12T05:31:53.042Z,17.65
2017-03-12T05:33:04.022Z,17.64
2017-03-12T05:34:13.949Z,17.65
2017-03-12T05:35:24.258Z,17.65
2017-03-12T05:36:35.004Z,17.63
2017-03-12T05:37:45.732Z,17.63
2017-03-12T05:38:55.652Z,17.64
2017-03-12T05:40:05.914Z,17.68
2017-03-12T05:41:15.647Z,17.65
2017-03-12T05:42:26.019Z,17.54
2017-03-12T05:43:36.753Z,17.7
2017-03-12T05:44:46.720Z,17.63
2017-03-12T05:45:57.066Z,17.59
2017-03-12T05:47:07.412Z,17.67
2017-03-12T05:48:18.179Z,17.72
2017-03-12T05:49:28.462Z,17.57
2017-03-12T05:50:39.209Z,17.54
2017-03-12T05:51:49.556Z,17.59
2017-03-12T05:52:59.892Z,17.6
2017-03-12T05:54:10.240Z,17.63
2017-03-12T05:55:19.369Z,17.59
2017-03-12T05:56:29.287Z,17.6
2017-03-12T05:57:40.016Z,17.51
2017-03-12T05:58:50.360Z,17.59
2017-03-12T06:00:01.064Z,17.59
2017-03-12T06:01:11.375Z,17.57
2017-03-12T06:02:21.687Z,17.71
2017-03-12T06:03:31.254Z,17.6
2017-03-12T06:04:41.574Z,17.68
2017-03-12T06:05:51.881Z,17.57
2017-03-12T06:07:02.621Z,17.72
2017-03-12T06:08:12.952Z,17.65
2017-03-12T06:09:23.271Z,17.63
2017-03-12T06:10:33.989Z,17.59
2017-03-12T06:11:44.197Z,17.68
2017-03-12T06:12:54.528Z,17.64
2017-03-12T06:14:04.114Z,17.7
2017-03-12T06:15:14.034Z,17.65
2017-03-12T06:16:23.951Z,17.65
2017-03-12T06:17:34.297Z,17.83
2017-03-12T06:18:45.013Z,17.8
2017-03-12T06:19:54.973Z,17.83
2017-03-12T06:21:04.557Z,17.74
2017-03-12T06:22:14.498Z,17.78
2017-03-12T06:23:25.224Z,17.8
2017-03-12T06:24:35.566Z,17.89
2017-03-12T06:25:45.913Z,17.82
2017-03-12T06:26:56.677Z,17.86
2017-03-12T06:28:07.394Z,17.85
2017-03-12T06:29:17.349Z,17.82
2017-03-12T06:30:27.309Z,17.9
2017-03-12T06:31:38.041Z,17.87
2017-03-12T06:32:48.759Z,17.97
2017-03-12T06:33:59.117Z,17.87
2017-03-12T06:35:09.050Z,17.94
2017-03-12T06:36:19.002Z,17.95
2017-03-12T06:37:29.311Z,17.94
2017-03-12T06:38:40.008Z,17.98
2017-03-12T06:39:50.291Z,18.03
2017-03-12T06:41:00.223Z,18.01
2017-03-12T06:42:09.809Z,18.05
2017-03-12T06:43:20.142Z,18.08
2017-03-12T06:44:29.661Z,18.11
2017-03-12T06:45:39.997Z,18.07
2017-03-12T06:46:50.353Z,18.07
2017-03-12T06:48:00.727Z,18.07
2017-03-12T06:49:10.681Z,18.22
2017-03-12T06:50:21.035Z,18.18
2017-03-12T06:51:31.408Z,18.13
2017-03-12T06:52:42.121Z,18.33
2017-03-12T06:53:52.100Z,18.23
2017-03-12T06:55:01.624Z,18.2
2017-03-12T06:56:11.961Z,18.25
2017-03-12T06:57:22.315Z,18.31
2017-03-12T06:58:33.067Z,18.35
2017-03-12T06:59:43.026Z,18.33
2017-03-12T07:00:52.956Z,18.33
2017-03-12T07:02:02.853Z,18.41
2017-03-12T07:03:13.561Z,18.44
2017-03-12T07:04:23.528Z,18.47
2017-03-12T07:05:33.501Z,18.52
2017-03-12T07:06:43.465Z,18.52
2017-03-12T07:07:53.413Z,18.6
2017-03-12T07:09:04.494Z,18.66
2017-03-12T07:10:15.185Z,18.68
2017-03-12T07:11:25.105Z,18.81
2017-03-12T07:12:35.471Z,18.73
2017-03-12T07:13:45.816Z,18.86
2017-03-12T07:14:56.159Z,18.95
2017-03-12T07:16:07.125Z,18.93
2017-03-12T07:17:17.465Z,18.98
2017-03-12T07:18:28.192Z,19.08
2017-03-12T07:19:37.746Z,19.09
2017-03-12T07:20:48.467Z,19.07
2017-03-12T07:21:58.811Z,19.21
2017-03-12T07:23:09.146Z,19.29
2017-03-12T07:24:18.728Z,19.26
2017-03-12T07:25:29.074Z,19.31
2017-03-12T07:26:38.671Z,19.44
2017-03-12T07:27:49.409Z,19.4
2017-03-12T07:28:59.725Z,19.49
2017-03-12T07:30:09.662Z,19.58
2017-03-12T07:31:18.829Z,19.64
2017-03-12T07:32:29.591Z,19.66
2017-03-12T07:33:39.920Z,19.71
2017-03-12T07:34:49.832Z,19.79
2017-03-12T07:36:00.515Z,19.77
2017-03-12T07:37:11.070Z,19.84
2017-03-12T07:38:21.447Z,19.84
2017-03-12T07:39:31.803Z,19.86
2017-03-12T07:40:42.146Z,19.89
2017-03-12T07:41:52.484Z,19.94
2017-03-12T07:43:03.264Z,19.88
2017-03-12T07:44:13.593Z,19.99
2017-03-12T07:45:23.127Z,19.99
2017-03-12T07:46:33.035Z,19.96
2017-03-12T07:47:42.932Z,20.02
2017-03-12T07:48:52.490Z,20.03
2017-03-12T07:50:02.827Z,20
2017-03-12T07:51:12.031Z,20.03
2017-03-12T07:52:22.377Z,19.96
2017-03-12T07:53:32.728Z,19.96
2017-03-12T07:54:42.714Z,20.16
2017-03-12T07:55:53.019Z,20.14
2017-03-12T07:57:02.641Z,20.18
2017-03-12T07:58:13.003Z,20.19
2017-03-12T07:59:22.975Z,20.19
2017-03-12T08:00:32.544Z,20.21
2017-03-12T08:01:43.572Z,20.26
2017-03-12T08:02:53.931Z,20.29
2017-03-12T08:04:04.643Z,20.28
2017-03-12T08:05:14.617Z,20.29
2017-03-12T08:06:24.575Z,20.29
2017-03-12T08:07:34.922Z,20.29
2017-03-12T08:08:44.879Z,20.37
2017-03-12T08:09:55.238Z,20.29
2017-03-12T08:11:05.029Z,20.37
2017-03-12T08:12:14.978Z,20.41
2017-03-12T08:13:25.316Z,20.41
2017-03-12T08:14:35.663Z,20.44
2017-03-12T08:15:46.013Z,20.52
2017-03-12T08:16:56.362Z,20.48
2017-03-12T08:18:07.094Z,20.47
2017-03-12T08:19:18.091Z,20.59
2017-03-12T08:20:28.828Z,20.62
2017-03-12T08:21:39.167Z,20.59
2017-03-12T08:22:49.524Z,20.59
2017-03-12T08:23:59.483Z,20.55
2017-03-12T08:25:09.012Z,20.7
2017-03-12T08:26:18.177Z,20.56
2017-03-12T08:27:28.141Z,20.6
2017-03-12T08:28:38.360Z,20.65
2017-03-12T08:29:48.734Z,20.43
2017-03-12T08:30:59.299Z,20.6
2017-03-12T08:32:09.245Z,20.58
2017-03-12T08:33:18.426Z,20.59
2017-03-12T08:34:29.151Z,20.59
2017-03-12T08:38:26.929Z,20.43
2017-03-12T08:39:36.076Z,20.55
2017-03-12T08:40:46.003Z,20.47
2017-03-12T08:41:55.979Z,20.47
2017-03-12T08:43:05.200Z,20.47
2017-03-12T08:44:14.772Z,20.59
2017-03-12T08:45:24.010Z,20.58
2017-03-12T08:46:33.584Z,20.58
2017-03-12T08:47:43.974Z,20.6
2017-03-12T08:48:52.759Z,20.67
2017-03-12T08:50:02.317Z,20.72
2017-03-12T08:51:12.672Z,20.69
2017-03-12T08:52:21.454Z,20.7
2017-03-12T08:53:31.031Z,20.74
2017-03-12T08:54:40.242Z,20.87
2017-03-12T08:55:50.213Z,20.88
2017-03-12T08:57:00.195Z,20.88
2017-03-12T08:58:08.988Z,20.88
2017-03-12T08:59:18.558Z,20.99
2017-03-12T09:00:27.776Z,21.03
2017-03-12T09:01:36.949Z,21.12
2017-03-12T09:02:46.907Z,21.11
2017-03-12T09:03:57.254Z,21.27
2017-03-12T09:05:06.432Z,21.25
2017-03-12T09:06:16.008Z,21.33
2017-03-12T09:07:25.982Z,21.42
2017-03-12T09:08:35.184Z,21.61
2017-03-12T09:09:44.373Z,21.73
2017-03-12T09:10:53.912Z,21.91
2017-03-12T09:12:03.101Z,21.98
2017-03-12T09:13:12.289Z,22.2
2017-03-12T09:14:22.249Z,22.43
2017-03-12T09:15:31.856Z,22.73
2017-03-12T09:16:40.619Z,22.93
2017-03-12T09:17:49.791Z,23.4
2017-03-12T09:19:00.482Z,23.61
2017-03-12T09:20:09.252Z,23.93
2017-03-12T09:21:18.409Z,24.16
2017-03-12T09:22:28.348Z,24.36
2017-03-12T09:23:37.544Z,24.65
2017-03-12T09:24:47.926Z,24.77
2017-03-12T09:25:57.889Z,25.06
2017-03-12T09:27:07.511Z,25.31
2017-03-12T09:28:17.488Z,25.51
2017-03-12T09:29:27.087Z,25.6
2017-03-12T09:30:37.067Z,25.87
2017-03-12T09:31:46.722Z,26
2017-03-12T09:32:56.309Z,26.19
2017-03-12T09:34:06.304Z,26.4
2017-03-12T09:35:15.496Z,26.63
2017-03-12T09:36:25.064Z,26.83
2017-03-12T09:37:34.562Z,26.96
2017-03-12T09:38:43.730Z,26.93
2017-03-12T09:39:52.949Z,27.11
2017-03-12T09:41:02.164Z,27.17
2017-03-12T09:42:11.739Z,27.25
2017-03-12T09:43:20.528Z,27.47
2017-03-12T09:44:29.714Z,27.68
2017-03-12T09:45:39.310Z,27.96
2017-03-12T09:46:48.888Z,28.19
2017-03-12T09:47:58.733Z,28.41
2017-03-12T09:49:09.143Z,28.64
2017-03-12T09:50:18.341Z,28.85
2017-03-12T09:51:27.529Z,28.88
2017-03-12T09:52:37.497Z,29.05
2017-03-12T09:53:47.855Z,29.34
2017-03-12T09:54:58.240Z,29.47
2017-03-12T09:56:07.406Z,29.63
2017-03-12T09:57:17.731Z,29.84
2017-03-12T09:58:27.343Z,29.94
2017-03-12T09:59:37.536Z,30.06
2017-03-12T10:02:20.101Z,30.61
2017-03-12T10:03:30.062Z,30.73
2017-03-12T10:04:40.417Z,30.85
2017-03-12T10:05:50.763Z,31
2017-03-12T10:07:01.466Z,31
2017-03-12T10:08:10.627Z,31.21
2017-03-12T10:09:20.973Z,31.34
2017-03-12T10:10:30.936Z,31.52
2017-03-12T10:11:40.503Z,31.59
2017-03-12T10:12:50.432Z,31.62
2017-03-12T10:14:00.400Z,31.64
2017-03-12T10:15:09.972Z,31.7
2017-03-12T10:16:19.561Z,31.69
2017-03-12T10:17:29.505Z,31.61
2017-03-12T10:18:39.005Z,31.54
2017-03-12T10:19:48.546Z,31.55
2017-03-12T10:20:58.525Z,31.4
2017-03-12T10:22:08.733Z,31.42
2017-03-12T10:23:18.710Z,31.34
2017-03-12T10:24:27.871Z,31.36
2017-03-12T10:25:37.415Z,31.36
2017-03-12T10:26:48.122Z,31.31
2017-03-12T10:27:58.055Z,31.51
2017-03-12T10:29:08.033Z,31.52
2017-03-12T10:30:17.573Z,31.54
2017-03-12T10:31:28.292Z,31.58
2017-03-12T10:35:35.840Z,32.18
2017-03-12T10:36:44.623Z,32.53
2017-03-12T10:37:54.218Z,32.75
2017-03-12T10:39:04.610Z,32.97
2017-03-12T10:40:14.180Z,33.14
2017-03-12T10:41:23.372Z,33.3
2017-03-12T10:42:32.978Z,33.39
2017-03-12T10:43:42.912Z,33.5
2017-03-12T10:44:52.426Z,33.71
2017-03-12T10:46:03.160Z,33.96
2017-03-12T10:47:12.757Z,34.03
2017-03-12T10:48:22.753Z,34.24
2017-03-12T10:49:32.211Z,34.32
2017-03-12T10:50:42.176Z,34.43
2017-03-12T10:51:52.140Z,34.64
2017-03-12T10:53:01.748Z,34.7
2017-03-12T10:54:11.714Z,34.75
2017-03-12T10:55:21.683Z,34.92
2017-03-12T10:56:31.290Z,35.02
2017-03-12T10:57:41.643Z,35.08
2017-03-12T10:58:52.008Z,35.14
2017-03-12T11:00:02.298Z,35.23
2017-03-12T11:01:12.285Z,35.17
2017-03-12T11:02:21.817Z,35.31
2017-03-12T11:03:31.389Z,35.3
2017-03-12T11:04:48.020Z,35.45
2017-03-12T11:05:58.007Z,35.55
2017-03-12T11:07:07.961Z,35.56
2017-03-12T11:08:17.155Z,35.67
2017-03-12T11:09:27.514Z,35.61
2017-03-12T11:10:37.482Z,35.8
2017-03-12T11:11:47.464Z,35.88
2017-03-12T11:12:57.099Z,35.97
2017-03-12T11:14:07.070Z,36.01
2017-03-12T11:15:16.657Z,35.95
2017-03-12T11:16:26.232Z,36.05
2017-03-12T11:17:36.616Z,36.12
2017-03-12T11:18:46.151Z,36.2
2017-03-12T11:19:56.073Z,36.2
2017-03-12T11:21:04.879Z,36.24
2017-03-12T11:22:14.834Z,36.27
2017-03-12T11:23:25.191Z,36.3
2017-03-12T11:24:34.390Z,36.45
2017-03-12T11:25:44.340Z,36.47
2017-03-12T11:26:55.046Z,36.52
2017-03-12T11:28:05.034Z,36.57
2017-03-12T11:29:14.595Z,36.51
2017-03-12T11:30:24.593Z,36.59
2017-03-12T11:31:34.587Z,36.76
2017-03-12T11:32:44.960Z,36.79
2017-03-12T11:33:55.321Z,36.86
2017-03-12T11:35:05.253Z,36.91
2017-03-12T11:36:15.584Z,36.91
2017-03-12T11:37:25.529Z,36.98
2017-03-12T11:38:36.234Z,37.02
2017-03-12T11:39:46.211Z,37.07
2017-03-12T11:40:55.780Z,37.06
2017-03-12T11:42:06.531Z,37.2
2017-03-12T11:43:16.487Z,37.2
2017-03-12T11:44:26.451Z,37.18
2017-03-12T11:45:36.433Z,37.28
2017-03-12T11:46:45.237Z,37.33
2017-03-12T11:47:55.594Z,37.32
2017-03-12T11:49:05.130Z,37.36
2017-03-12T11:50:15.113Z,37.36
2017-03-12T11:51:24.701Z,37.37
2017-03-12T11:52:34.686Z,37.42
2017-03-12T11:53:44.289Z,37.63
2017-03-12T11:54:54.265Z,37.7
2017-03-12T11:56:05.217Z,37.7
2017-03-12T11:57:15.997Z,37.6
2017-03-12T11:58:26.358Z,37.49
2017-03-12T11:59:37.054Z,37.44
2017-03-12T12:00:47.386Z,37.28
2017-03-12T12:01:57.359Z,37.11
2017-03-12T12:03:06.949Z,36.68
2017-03-12T12:04:17.714Z,36.18
2017-03-12T12:05:27.727Z,35.6
2017-03-12T12:06:38.105Z,35.14
2017-03-12T12:07:48.815Z,34.62
2017-03-12T12:08:59.050Z,34.13
2017-03-12T12:10:09.376Z,33.57
2017-03-12T12:11:18.507Z,33.08
2017-03-12T12:12:27.298Z,32.71
2017-03-12T12:13:36.522Z,32.34
2017-03-12T12:14:46.505Z,32
2017-03-12T12:15:56.100Z,31.55
2017-03-12T12:17:06.072Z,31.24
2017-03-12T12:18:16.033Z,30.87
2017-03-12T12:19:26.026Z,30.51
2017-03-12T12:20:35.993Z,30.21
2017-03-12T12:21:46.360Z,30.02
2017-03-12T12:22:56.729Z,29.65
2017-03-12T12:24:06.705Z,29.41
2017-03-12T12:25:16.288Z,29.13
2017-03-12T12:26:25.897Z,28.96
2017-03-12T12:27:36.260Z,28.79
2017-03-12T12:28:46.230Z,28.63
2017-03-12T12:29:56.973Z,28.38
2017-03-12T12:31:06.933Z,28.14
2017-03-12T12:32:17.682Z,27.95
2017-03-12T12:33:28.036Z,27.89
2017-03-12T12:34:37.632Z,27.74
2017-03-12T12:35:47.974Z,27.68
2017-03-12T12:36:57.150Z,27.51
2017-03-12T12:38:07.250Z,27.35
2017-03-12T12:39:17.948Z,27.14
2017-03-12T12:40:28.664Z,27.1
2017-03-12T12:41:38.443Z,27
2017-03-12T12:42:48.422Z,26.9
2017-03-12T12:43:59.156Z,26.81
2017-03-12T12:45:09.438Z,26.7
2017-03-12T12:46:19.760Z,26.53
2017-03-12T12:47:29.364Z,26.53
2017-03-12T12:48:39.352Z,26.47
2017-03-12T12:49:49.687Z,26.37
2017-03-12T12:51:00.456Z,26.29
2017-03-12T12:52:10.041Z,26.21
2017-03-12T12:53:19.247Z,26.13
2017-03-12T12:54:29.249Z,26
2017-03-12T12:55:39.167Z,25.9
2017-03-12T12:56:48.721Z,25.95
2017-03-12T12:57:59.106Z,25.78
2017-03-12T12:59:08.684Z,25.8
2017-03-12T13:00:18.550Z,25.54
2017-03-12T13:01:28.908Z,25.5
2017-03-12T13:02:39.258Z,25.43
2017-03-12T13:03:50.005Z,25.29
2017-03-12T13:05:00.386Z,25.23
2017-03-12T13:06:09.960Z,25.18
2017-03-12T13:07:20.328Z,25.07
2017-03-12T13:08:29.562Z,25.01
2017-03-12T13:09:39.924Z,24.93
2017-03-12T13:10:50.281Z,24.77
2017-03-12T13:12:00.242Z,24.66
2017-03-12T13:13:09.460Z,24.7
2017-03-12T13:14:19.838Z,24.7
2017-03-12T13:15:32.427Z,24.61
2017-03-12T13:16:42.777Z,24.66
2017-03-12T13:17:52.347Z,24.53
2017-03-12T13:19:02.313Z,24.38
2017-03-12T13:20:12.290Z,24.43
2017-03-12T13:21:23.002Z,24.36
2017-03-12T13:22:32.891Z,24.36
2017-03-12T13:23:42.847Z,24.35
2017-03-12T13:24:52.421Z,24.29
2017-03-12T13:26:02.001Z,24.21
2017-03-12T13:27:12.310Z,24.18
2017-03-12T13:28:22.253Z,24.2
2017-03-12T13:29:31.446Z,24.08
2017-03-12T13:30:41.040Z,24.1
2017-03-12T13:31:50.621Z,24.05
2017-03-12T13:33:00.585Z,23.98
2017-03-12T13:34:10.163Z,23.99
2017-03-12T13:35:20.489Z,23.93
2017-03-12T13:36:30.769Z,23.93
2017-03-12T13:37:41.467Z,23.95
2017-03-12T13:38:51.390Z,23.88
2017-03-12T13:40:01.744Z,23.81
2017-03-12T13:41:11.861Z,23.8
2017-03-12T13:42:21.834Z,23.81
2017-03-12T13:43:31.806Z,23.83
2017-03-12T13:44:41.376Z,23.77
2017-03-12T13:45:51.295Z,23.8
2017-03-12T13:47:00.840Z,23.73
2017-03-12T13:48:10.703Z,23.69
2017-03-12T13:49:19.854Z,23.69
2017-03-12T13:50:29.847Z,23.71
2017-03-12T13:51:39.831Z,23.65
2017-03-12T13:52:49.807Z,23.65
2017-03-12T13:53:59.386Z,23.66
2017-03-12T13:55:09.774Z,23.59
2017-03-12T13:56:20.122Z,23.56
2017-03-12T13:57:30.483Z,23.55
2017-03-12T13:58:39.675Z,23.58
2017-03-12T13:59:48.866Z,23.59
2017-03-12T14:00:59.225Z,23.59
2017-03-12T14:02:08.373Z,23.47
2017-03-12T14:03:18.310Z,23.46
2017-03-12T14:04:28.679Z,23.39
2017-03-12T14:05:38.630Z,23.34
2017-03-12T14:06:48.801Z,23.37
2017-03-12T14:07:59.126Z,23.24
2017-03-12T14:09:09.883Z,23.34
2017-03-12T14:10:20.242Z,23.28
2017-03-12T14:11:30.250Z,23.27
2017-03-12T14:12:40.994Z,23.27
2017-03-12T14:13:51.759Z,23.27
2017-03-12T14:15:01.754Z,23.23
2017-03-12T14:16:11.369Z,23.25
2017-03-12T14:17:21.684Z,23.15
2017-03-12T14:18:32.047Z,23.2
2017-03-12T14:19:42.403Z,23.15
2017-03-12T14:20:52.764Z,23.15
2017-03-12T14:22:03.129Z,23.13
2017-03-12T14:23:11.945Z,23.15
2017-03-12T14:24:21.156Z,23.12
2017-03-12T14:25:31.529Z,23.08
2017-03-12T14:26:42.270Z,23.08
2017-03-12T14:27:52.229Z,22.99
2017-03-12T14:29:02.464Z,23.05
2017-03-12T14:30:12.046Z,22.93
2017-03-12T14:31:21.252Z,23.06
2017-03-12T14:32:32.005Z,23
2017-03-12T14:33:41.941Z,23.06
2017-03-12T14:34:52.248Z,23.05
2017-03-12T14:36:02.186Z,22.98
2017-03-12T14:37:11.479Z,22.93
2017-03-12T14:38:21.409Z,22.99
2017-03-12T14:39:31.394Z,22.94
2017-03-12T14:40:41.357Z,22.93
2017-03-12T14:41:52.117Z,22.93
2017-03-12T14:43:01.700Z,22.96
2017-03-12T14:44:12.376Z,22.87
2017-03-12T14:45:22.319Z,22.87
2017-03-12T14:46:32.682Z,22.87
2017-03-12T14:47:42.239Z,22.8
2017-03-12T14:48:52.067Z,22.75
2017-03-12T14:50:02.037Z,22.81
2017-03-12T14:51:12.779Z,22.73
2017-03-12T14:52:22.752Z,22.69
2017-03-12T14:53:32.319Z,22.76
2017-03-12T14:54:42.273Z,22.72
2017-03-12T14:55:52.633Z,22.68
2017-03-12T14:57:01.847Z,22.69
2017-03-12T14:58:11.234Z,22.83
2017-03-12T14:59:20.819Z,22.76
2017-03-12T15:00:30.780Z,22.72
2017-03-12T15:01:40.365Z,22.72
2017-03-12T15:02:49.917Z,22.69
2017-03-12T15:04:00.275Z,22.69
2017-03-12T15:05:09.840Z,22.7
2017-03-12T15:06:20.189Z,22.68
2017-03-12T15:07:30.531Z,22.66
2017-03-12T15:08:40.897Z,22.72
2017-03-12T15:09:49.697Z,22.65
2017-03-12T15:11:00.053Z,22.65
2017-03-12T15:12:09.651Z,22.57
2017-03-12T15:13:19.256Z,22.62
2017-03-12T15:14:29.617Z,22.6